sensor_id;sensor_type;location;lat;lon;timestamp;temperature;humidity
75666;DHT22;64263;49.492;11.056;2023-06-24T00:00:03;15.10;87.90
75666;DHT22;64263;49.492;11.056;2023-06-24T00:02:28;15.00;88.40
75666;DHT22;64263;49.492;11.056;2023-06-24T00:04:54;15.00;88.90
75666;DHT22;64263;49.492;11.056;2023-06-24T00:07:19;15.00;89.10
75666;DHT22;64263;49.492;11.056;2023-06-24T00:09:45;14.90;89.10
75666;DHT22;64263;49.492;11.056;2023-06-24T00:12:10;14.90;89.40
75666;DHT22;64263;49.492;11.056;2023-06-24T00:14:37;14.70;90.00
75666;DHT22;64263;49.492;11.056;2023-06-24T00:17:02;14.60;90.40
75666;DHT22;64263;49.492;11.056;2023-06-24T00:19:28;14.50;90.80
75666;DHT22;64263;49.492;11.056;2023-06-24T00:21:53;14.40;91.20
75666;DHT22;64263;49.492;11.056;2023-06-24T00:24:20;14.30;91.50
75666;DHT22;64263;49.492;11.056;2023-06-24T00:26:48;14.30;91.80
75666;DHT22;64263;49.492;11.056;2023-06-24T00:29:14;14.20;92.00
75666;DHT22;64263;49.492;11.056;2023-06-24T00:31:39;14.10;92.20
75666;DHT22;64263;49.492;11.056;2023-06-24T00:34:05;14.00;92.30
75666;DHT22;64263;49.492;11.056;2023-06-24T00:36:30;13.90;92.50
75666;DHT22;64263;49.492;11.056;2023-06-24T00:38:56;13.90;92.80
75666;DHT22;64263;49.492;11.056;2023-06-24T00:41:21;13.70;92.80
75666;DHT22;64263;49.492;11.056;2023-06-24T00:43:47;13.70;93.00
75666;DHT22;64263;49.492;11.056;2023-06-24T00:46:13;13.70;93.00
75666;DHT22;64263;49.492;11.056;2023-06-24T00:48:38;13.60;93.10
75666;DHT22;64263;49.492;11.056;2023-06-24T00:51:04;13.60;93.20
75666;DHT22;64263;49.492;11.056;2023-06-24T00:53:29;13.60;93.40
75666;DHT22;64263;49.492;11.056;2023-06-24T00:55:56;13.60;93.30
75666;DHT22;64263;49.492;11.056;2023-06-24T00:58:23;13.50;93.30
75666;DHT22;64263;49.492;11.056;2023-06-24T01:00:49;13.50;93.50
75666;DHT22;64263;49.492;11.056;2023-06-24T01:03:16;13.40;93.50
75666;DHT22;64263;49.492;11.056;2023-06-24T01:05:42;13.40;93.60
75666;DHT22;64263;49.492;11.056;2023-06-24T01:08:08;13.30;93.60
75666;DHT22;64263;49.492;11.056;2023-06-24T01:10:33;13.20;93.60
75666;DHT22;64263;49.492;11.056;2023-06-24T01:12:59;13.10;93.70
75666;DHT22;64263;49.492;11.056;2023-06-24T01:15:24;13.00;94.00
75666;DHT22;64263;49.492;11.056;2023-06-24T01:20:41;12.90;94.40
75666;DHT22;64263;49.492;11.056;2023-06-24T01:26:32;12.80;94.20
75666;DHT22;64263;49.492;11.056;2023-06-24T01:29:09;12.70;94.30
75666;DHT22;64263;49.492;11.056;2023-06-24T01:34:28;12.70;94.50
75666;DHT22;64263;49.492;11.056;2023-06-24T01:40:00;12.50;94.60
75666;DHT22;64263;49.492;11.056;2023-06-24T01:42:28;12.50;94.80
75666;DHT22;64263;49.492;11.056;2023-06-24T01:44:55;12.50;94.90
75666;DHT22;64263;49.492;11.056;2023-06-24T01:47:25;12.40;94.90
75666;DHT22;64263;49.492;11.056;2023-06-24T01:49:53;12.30;95.00
75666;DHT22;64263;49.492;11.056;2023-06-24T01:52:21;12.30;95.20
75666;DHT22;64263;49.492;11.056;2023-06-24T01:54:49;12.30;95.10
75666;DHT22;64263;49.492;11.056;2023-06-24T01:57:15;12.30;95.30
75666;DHT22;64263;49.492;11.056;2023-06-24T01:59:45;12.30;95.40
75666;DHT22;64263;49.492;11.056;2023-06-24T02:02:12;12.30;95.40
75666;DHT22;64263;49.492;11.056;2023-06-24T02:04:38;12.30;95.50
75666;DHT22;64263;49.492;11.056;2023-06-24T02:07:05;12.30;95.70
75666;DHT22;64263;49.492;11.056;2023-06-24T02:09:33;12.30;95.70
75666;DHT22;64263;49.492;11.056;2023-06-24T02:12:02;12.30;95.50
75666;DHT22;64263;49.492;11.056;2023-06-24T02:14:29;12.30;95.50
75666;DHT22;64263;49.492;11.056;2023-06-24T02:16:56;12.20;95.30
75666;DHT22;64263;49.492;11.056;2023-06-24T02:19:25;12.10;95.20
75666;DHT22;64263;49.492;11.056;2023-06-24T02:21:53;12.00;95.40
75666;DHT22;64263;49.492;11.056;2023-06-24T02:24:19;12.00;95.60
75666;DHT22;64263;49.492;11.056;2023-06-24T02:26:46;12.00;95.60
75666;DHT22;64263;49.492;11.056;2023-06-24T02:29:13;11.90;95.80
75666;DHT22;64263;49.492;11.056;2023-06-24T02:31:39;12.00;95.80
75666;DHT22;64263;49.492;11.056;2023-06-24T02:34:05;11.90;95.80
75666;DHT22;64263;49.492;11.056;2023-06-24T02:36:30;12.00;95.80
75666;DHT22;64263;49.492;11.056;2023-06-24T02:38:56;12.00;95.70
75666;DHT22;64263;49.492;11.056;2023-06-24T02:41:21;11.90;95.40
75666;DHT22;64263;49.492;11.056;2023-06-24T02:43:47;12.00;95.50
75666;DHT22;64263;49.492;11.056;2023-06-24T02:46:14;12.10;95.10
75666;DHT22;64263;49.492;11.056;2023-06-24T02:48:40;12.20;94.80
75666;DHT22;64263;49.492;11.056;2023-06-24T02:51:07;12.20;94.40
75666;DHT22;64263;49.492;11.056;2023-06-24T02:53:33;12.20;93.90
75666;DHT22;64263;49.492;11.056;2023-06-24T02:56:00;12.20;94.00
75666;DHT22;64263;49.492;11.056;2023-06-24T02:58:27;12.10;93.80
75666;DHT22;64263;49.492;11.056;2023-06-24T03:00:52;12.00;94.00
75666;DHT22;64263;49.492;11.056;2023-06-24T03:03:18;11.90;94.00
75666;DHT22;64263;49.492;11.056;2023-06-24T03:05:44;11.80;94.20
75666;DHT22;64263;49.492;11.056;2023-06-24T03:08:10;11.80;94.80
75666;DHT22;64263;49.492;11.056;2023-06-24T03:10:36;11.90;95.50
75666;DHT22;64263;49.492;11.056;2023-06-24T03:13:02;12.00;95.40
75666;DHT22;64263;49.492;11.056;2023-06-24T03:15:27;12.00;95.00
75666;DHT22;64263;49.492;11.056;2023-06-24T03:17:53;12.00;94.40
75666;DHT22;64263;49.492;11.056;2023-06-24T03:20:19;11.90;94.40
75666;DHT22;64263;49.492;11.056;2023-06-24T03:22:45;11.90;94.80
75666;DHT22;64263;49.492;11.056;2023-06-24T03:25:10;11.90;94.50
75666;DHT22;64263;49.492;11.056;2023-06-24T03:27:35;11.80;94.40
75666;DHT22;64263;49.492;11.056;2023-06-24T03:30:01;11.70;94.30
75666;DHT22;64263;49.492;11.056;2023-06-24T03:32:26;11.60;94.60
75666;DHT22;64263;49.492;11.056;2023-06-24T03:34:52;11.60;94.90
75666;DHT22;64263;49.492;11.056;2023-06-24T03:37:17;11.70;95.10
75666;DHT22;64263;49.492;11.056;2023-06-24T03:39:43;11.60;94.90
75666;DHT22;64263;49.492;11.056;2023-06-24T03:42:08;11.60;95.00
75666;DHT22;64263;49.492;11.056;2023-06-24T03:44:34;11.50;95.00
75666;DHT22;64263;49.492;11.056;2023-06-24T03:46:59;11.60;95.40
75666;DHT22;64263;49.492;11.056;2023-06-24T03:49:25;11.60;95.10
75666;DHT22;64263;49.492;11.056;2023-06-24T03:51:50;11.60;95.20
75666;DHT22;64263;49.492;11.056;2023-06-24T03:54:16;11.60;95.40
75666;DHT22;64263;49.492;11.056;2023-06-24T03:56:41;11.70;95.50
75666;DHT22;64263;49.492;11.056;2023-06-24T03:59:06;11.90;95.30
75666;DHT22;64263;49.492;11.056;2023-06-24T04:01:32;11.80;94.80
75666;DHT22;64263;49.492;11.056;2023-06-24T04:03:58;11.90;94.90
75666;DHT22;64263;49.492;11.056;2023-06-24T04:06:23;11.90;94.80
75666;DHT22;64263;49.492;11.056;2023-06-24T04:08:49;11.90;94.80
75666;DHT22;64263;49.492;11.056;2023-06-24T04:11:14;11.90;94.50
75666;DHT22;64263;49.492;11.056;2023-06-24T04:13:40;12.00;94.90
75666;DHT22;64263;49.492;11.056;2023-06-24T04:16:05;12.10;95.20
75666;DHT22;64263;49.492;11.056;2023-06-24T04:18:31;12.20;94.70
75666;DHT22;64263;49.492;11.056;2023-06-24T04:20:56;12.20;94.30
75666;DHT22;64263;49.492;11.056;2023-06-24T04:23:22;12.30;94.00
75666;DHT22;64263;49.492;11.056;2023-06-24T04:25:47;12.30;93.70
75666;DHT22;64263;49.492;11.056;2023-06-24T04:28:13;12.50;93.60
75666;DHT22;64263;49.492;11.056;2023-06-24T04:30:38;12.50;93.50
75666;DHT22;64263;49.492;11.056;2023-06-24T04:33:04;12.60;93.30
75666;DHT22;64263;49.492;11.056;2023-06-24T04:35:30;12.70;92.80
75666;DHT22;64263;49.492;11.056;2023-06-24T04:37:55;12.80;92.70
75666;DHT22;64263;49.492;11.056;2023-06-24T04:40:21;13.00;92.40
75666;DHT22;64263;49.492;11.056;2023-06-24T04:42:46;13.10;92.10
75666;DHT22;64263;49.492;11.056;2023-06-24T04:45:12;13.30;91.80
75666;DHT22;64263;49.492;11.056;2023-06-24T04:47:37;13.50;91.20
75666;DHT22;64263;49.492;11.056;2023-06-24T04:50:03;13.70;90.60
75666;DHT22;64263;49.492;11.056;2023-06-24T04:52:29;13.90;90.50
75666;DHT22;64263;49.492;11.056;2023-06-24T04:54:55;14.00;90.50
75666;DHT22;64263;49.492;11.056;2023-06-24T04:57:28;14.30;90.10
75666;DHT22;64263;49.492;11.056;2023-06-24T04:59:53;14.50;89.00
75666;DHT22;64263;49.492;11.056;2023-06-24T05:02:19;14.70;88.90
75666;DHT22;64263;49.492;11.056;2023-06-24T05:04:44;15.00;88.40
75666;DHT22;64263;49.492;11.056;2023-06-24T05:07:10;15.20;87.50
75666;DHT22;64263;49.492;11.056;2023-06-24T05:09:35;15.50;86.60
75666;DHT22;64263;49.492;11.056;2023-06-24T05:12:01;15.80;85.70
75666;DHT22;64263;49.492;11.056;2023-06-24T05:14:26;16.10;85.10
75666;DHT22;64263;49.492;11.056;2023-06-24T05:16:51;16.40;83.40
75666;DHT22;64263;49.492;11.056;2023-06-24T05:19:17;16.60;82.50
75666;DHT22;64263;49.492;11.056;2023-06-24T05:21:42;16.80;81.30
75666;DHT22;64263;49.492;11.056;2023-06-24T05:24:08;16.90;80.50
75666;DHT22;64263;49.492;11.056;2023-06-24T05:26:33;17.10;80.40
75666;DHT22;64263;49.492;11.056;2023-06-24T05:28:59;17.20;78.80
75666;DHT22;64263;49.492;11.056;2023-06-24T05:31:24;17.50;77.50
75666;DHT22;64263;49.492;11.056;2023-06-24T05:33:50;17.40;78.60
75666;DHT22;64263;49.492;11.056;2023-06-24T05:36:15;17.80;78.10
75666;DHT22;64263;49.492;11.056;2023-06-24T05:38:41;18.00;76.50
75666;DHT22;64263;49.492;11.056;2023-06-24T05:41:06;18.20;74.80
75666;DHT22;64263;49.492;11.056;2023-06-24T05:43:31;18.40;74.70
75666;DHT22;64263;49.492;11.056;2023-06-24T05:45:57;18.40;72.50
75666;DHT22;64263;49.492;11.056;2023-06-24T05:48:22;18.30;72.90
75666;DHT22;64263;49.492;11.056;2023-06-24T05:50:48;18.30;72.00
75666;DHT22;64263;49.492;11.056;2023-06-24T05:53:13;18.50;73.10
75666;DHT22;64263;49.492;11.056;2023-06-24T05:55:39;18.90;71.90
75666;DHT22;64263;49.492;11.056;2023-06-24T05:58:04;19.10;71.10
75666;DHT22;64263;49.492;11.056;2023-06-24T06:00:30;19.30;69.80
75666;DHT22;64263;49.492;11.056;2023-06-24T06:02:55;19.50;68.20
75666;DHT22;64263;49.492;11.056;2023-06-24T06:05:20;19.70;67.90
75666;DHT22;64263;49.492;11.056;2023-06-24T06:07:46;19.70;67.70
75666;DHT22;64263;49.492;11.056;2023-06-24T06:10:11;19.90;66.90
75666;DHT22;64263;49.492;11.056;2023-06-24T06:12:37;20.00;67.10
75666;DHT22;64263;49.492;11.056;2023-06-24T06:15:02;20.20;66.90
75666;DHT22;64263;49.492;11.056;2023-06-24T06:17:28;20.50;65.90
75666;DHT22;64263;49.492;11.056;2023-06-24T06:19:53;20.50;65.60
75666;DHT22;64263;49.492;11.056;2023-06-24T06:22:19;20.60;65.50
75666;DHT22;64263;49.492;11.056;2023-06-24T06:24:44;20.70;64.80
75666;DHT22;64263;49.492;11.056;2023-06-24T06:27:10;20.90;65.00
75666;DHT22;64263;49.492;11.056;2023-06-24T06:29:36;21.10;64.60
75666;DHT22;64263;49.492;11.056;2023-06-24T06:32:01;21.30;63.50
75666;DHT22;64263;49.492;11.056;2023-06-24T06:34:27;21.50;62.60
75666;DHT22;64263;49.492;11.056;2023-06-24T06:36:52;21.50;63.10
75666;DHT22;64263;49.492;11.056;2023-06-24T06:39:17;21.70;61.80
75666;DHT22;64263;49.492;11.056;2023-06-24T06:41:43;21.90;61.40
75666;DHT22;64263;49.492;11.056;2023-06-24T06:44:08;21.90;62.10
75666;DHT22;64263;49.492;11.056;2023-06-24T06:46:34;21.90;60.80
75666;DHT22;64263;49.492;11.056;2023-06-24T06:48:59;21.90;61.60
75666;DHT22;64263;49.492;11.056;2023-06-24T06:51:25;21.90;61.80
75666;DHT22;64263;49.492;11.056;2023-06-24T06:53:50;22.10;60.60
75666;DHT22;64263;49.492;11.056;2023-06-24T06:56:23;22.20;60.40
75666;DHT22;64263;49.492;11.056;2023-06-24T06:58:48;22.30;59.70
75666;DHT22;64263;49.492;11.056;2023-06-24T07:01:14;22.60;59.20
75666;DHT22;64263;49.492;11.056;2023-06-24T07:03:40;22.90;59.60
75666;DHT22;64263;49.492;11.056;2023-06-24T07:06:05;23.00;57.70
75666;DHT22;64263;49.492;11.056;2023-06-24T07:08:30;23.00;58.40
75666;DHT22;64263;49.492;11.056;2023-06-24T07:10:56;23.10;57.90
75666;DHT22;64263;49.492;11.056;2023-06-24T07:13:21;23.50;57.50
75666;DHT22;64263;49.492;11.056;2023-06-24T07:15:47;23.70;57.00
75666;DHT22;64263;49.492;11.056;2023-06-24T07:18:12;23.50;54.70
75666;DHT22;64263;49.492;11.056;2023-06-24T07:20:38;23.60;56.00
75666;DHT22;64263;49.492;11.056;2023-06-24T07:23:03;23.80;55.30
75666;DHT22;64263;49.492;11.056;2023-06-24T07:25:29;24.00;54.50
75666;DHT22;64263;49.492;11.056;2023-06-24T07:27:54;24.30;53.90
75666;DHT22;64263;49.492;11.056;2023-06-24T07:30:20;24.80;54.70
75666;DHT22;64263;49.492;11.056;2023-06-24T07:32:45;25.00;53.30
75666;DHT22;64263;49.492;11.056;2023-06-24T07:35:11;25.20;54.50
75666;DHT22;64263;49.492;11.056;2023-06-24T07:37:36;25.50;51.80
75666;DHT22;64263;49.492;11.056;2023-06-24T07:40:02;25.70;50.70
75666;DHT22;64263;49.492;11.056;2023-06-24T07:42:27;25.80;50.00
75666;DHT22;64263;49.492;11.056;2023-06-24T07:44:53;26.00;49.60
75666;DHT22;64263;49.492;11.056;2023-06-24T07:47:18;26.40;50.70
75666;DHT22;64263;49.492;11.056;2023-06-24T07:49:44;26.60;50.50
75666;DHT22;64263;49.492;11.056;2023-06-24T07:52:09;26.80;49.40
75666;DHT22;64263;49.492;11.056;2023-06-24T07:54:35;26.70;49.70
75666;DHT22;64263;49.492;11.056;2023-06-24T07:57:00;26.70;48.00
75666;DHT22;64263;49.492;11.056;2023-06-24T07:59:26;26.90;48.10
75666;DHT22;64263;49.492;11.056;2023-06-24T08:01:51;27.10;46.50
75666;DHT22;64263;49.492;11.056;2023-06-24T08:04:17;27.40;46.60
75666;DHT22;64263;49.492;11.056;2023-06-24T08:06:42;27.70;47.20
75666;DHT22;64263;49.492;11.056;2023-06-24T08:09:08;27.90;47.60
75666;DHT22;64263;49.492;11.056;2023-06-24T08:11:33;28.10;45.70
75666;DHT22;64263;49.492;11.056;2023-06-24T08:13:59;28.00;45.20
75666;DHT22;64263;49.492;11.056;2023-06-24T08:16:24;28.30;45.00
75666;DHT22;64263;49.492;11.056;2023-06-24T08:18:50;28.70;45.80
75666;DHT22;64263;49.492;11.056;2023-06-24T08:21:15;29.00;43.10
75666;DHT22;64263;49.492;11.056;2023-06-24T08:23:41;29.70;44.30
75666;DHT22;64263;49.492;11.056;2023-06-24T08:26:06;30.40;42.90
75666;DHT22;64263;49.492;11.056;2023-06-24T08:28:32;30.60;40.40
75666;DHT22;64263;49.492;11.056;2023-06-24T08:30:57;30.60;40.30
75666;DHT22;64263;49.492;11.056;2023-06-24T08:33:23;30.50;40.60
75666;DHT22;64263;49.492;11.056;2023-06-24T08:35:48;30.60;39.30
75666;DHT22;64263;49.492;11.056;2023-06-24T08:38:14;30.30;39.50
75666;DHT22;64263;49.492;11.056;2023-06-24T08:40:40;30.40;40.90
75666;DHT22;64263;49.492;11.056;2023-06-24T08:43:06;30.60;40.80
75666;DHT22;64263;49.492;11.056;2023-06-24T08:45:31;30.80;39.80
75666;DHT22;64263;49.492;11.056;2023-06-24T08:51:00;32.20;37.80
75666;DHT22;64263;49.492;11.056;2023-06-24T08:53:27;32.30;37.60
75666;DHT22;64263;49.492;11.056;2023-06-24T08:55:54;32.90;37.30
75666;DHT22;64263;49.492;11.056;2023-06-24T08:58:21;33.00;36.30
75666;DHT22;64263;49.492;11.056;2023-06-24T09:00:46;33.40;36.50
75666;DHT22;64263;49.492;11.056;2023-06-24T09:03:12;33.30;35.80
75666;DHT22;64263;49.492;11.056;2023-06-24T09:05:37;33.40;35.60
75666;DHT22;64263;49.492;11.056;2023-06-24T09:08:03;33.40;35.30
75666;DHT22;64263;49.492;11.056;2023-06-24T09:10:30;33.90;35.40
75666;DHT22;64263;49.492;11.056;2023-06-24T09:12:56;34.10;34.10
75666;DHT22;64263;49.492;11.056;2023-06-24T09:15:21;34.20;32.10
75666;DHT22;64263;49.492;11.056;2023-06-24T09:17:47;34.40;32.80
75666;DHT22;64263;49.492;11.056;2023-06-24T09:20:12;34.50;31.80
75666;DHT22;64263;49.492;11.056;2023-06-24T09:22:40;34.40;32.30
75666;DHT22;64263;49.492;11.056;2023-06-24T09:25:06;34.40;31.80
75666;DHT22;64263;49.492;11.056;2023-06-24T09:27:31;34.40;31.20
75666;DHT22;64263;49.492;11.056;2023-06-24T09:29:57;34.40;33.60
75666;DHT22;64263;49.492;11.056;2023-06-24T09:32:29;34.20;32.30
75666;DHT22;64263;49.492;11.056;2023-06-24T09:34:54;34.60;31.10
75666;DHT22;64263;49.492;11.056;2023-06-24T09:37:22;34.80;32.00
75666;DHT22;64263;49.492;11.056;2023-06-24T09:39:48;34.70;31.10
75666;DHT22;64263;49.492;11.056;2023-06-24T09:42:13;34.40;33.40
75666;DHT22;64263;49.492;11.056;2023-06-24T09:44:39;33.90;31.80
75666;DHT22;64263;49.492;11.056;2023-06-24T09:47:05;33.20;32.20
75666;DHT22;64263;49.492;11.056;2023-06-24T09:49:30;33.30;33.60
75666;DHT22;64263;49.492;11.056;2023-06-24T09:51:57;33.90;33.10
75666;DHT22;64263;49.492;11.056;2023-06-24T09:54:26;34.90;30.70
75666;DHT22;64263;49.492;11.056;2023-06-24T09:56:53;35.70;30.90
75666;DHT22;64263;49.492;11.056;2023-06-24T09:59:19;34.20;30.70
75666;DHT22;64263;49.492;11.056;2023-06-24T10:01:46;34.40;30.30
75666;DHT22;64263;49.492;11.056;2023-06-24T10:04:19;34.20;29.80
75666;DHT22;64263;49.492;11.056;2023-06-24T10:06:45;34.50;31.70
75666;DHT22;64263;49.492;11.056;2023-06-24T10:09:10;34.70;31.80
75666;DHT22;64263;49.492;11.056;2023-06-24T10:11:36;34.40;30.30
75666;DHT22;64263;49.492;11.056;2023-06-24T10:14:02;33.00;30.30
75666;DHT22;64263;49.492;11.056;2023-06-24T10:16:27;33.80;32.10
75666;DHT22;64263;49.492;11.056;2023-06-24T10:19:00;35.30;29.00
75666;DHT22;64263;49.492;11.056;2023-06-24T10:21:49;36.70;27.10
75666;DHT22;64263;49.492;11.056;2023-06-24T10:24:35;38.00;26.20
75666;DHT22;64263;49.492;11.056;2023-06-24T10:27:08;39.40;24.80
75666;DHT22;64263;49.492;11.056;2023-06-24T10:29:37;39.90;24.90
75666;DHT22;64263;49.492;11.056;2023-06-24T10:32:05;40.80;24.20
75666;DHT22;64263;49.492;11.056;2023-06-24T10:44:52;41.50;23.40
75666;DHT22;64263;49.492;11.056;2023-06-24T10:47:18;41.40;23.60
75666;DHT22;64263;49.492;11.056;2023-06-24T10:49:44;41.70;23.00
75666;DHT22;64263;49.492;11.056;2023-06-24T10:52:10;41.00;22.90
75666;DHT22;64263;49.492;11.056;2023-06-24T10:54:37;39.10;25.40
75666;DHT22;64263;49.492;11.056;2023-06-24T10:57:07;40.30;25.20
75666;DHT22;64263;49.492;11.056;2023-06-24T10:59:42;41.40;24.30
75666;DHT22;64263;49.492;11.056;2023-06-24T11:02:08;41.80;23.50
75666;DHT22;64263;49.492;11.056;2023-06-24T11:04:39;42.20;22.80
75666;DHT22;64263;49.492;11.056;2023-06-24T11:07:06;42.60;23.20
75666;DHT22;64263;49.492;11.056;2023-06-24T11:09:32;42.40;23.30
75666;DHT22;64263;49.492;11.056;2023-06-24T11:11:57;40.30;24.30
75666;DHT22;64263;49.492;11.056;2023-06-24T11:14:23;36.70;26.90
75666;DHT22;64263;49.492;11.056;2023-06-24T11:16:49;35.20;28.50
75666;DHT22;64263;49.492;11.056;2023-06-24T11:19:15;34.20;29.70
75666;DHT22;64263;49.492;11.056;2023-06-24T11:21:40;33.10;31.20
75666;DHT22;64263;49.492;11.056;2023-06-24T11:24:06;36.70;30.00
75666;DHT22;64263;49.492;11.056;2023-06-24T11:26:32;39.40;25.90
75666;DHT22;64263;49.492;11.056;2023-06-24T11:28:58;41.10;23.90
75666;DHT22;64263;49.492;11.056;2023-06-24T11:31:27;42.30;23.10
75666;DHT22;64263;49.492;11.056;2023-06-24T11:33:53;41.70;23.20
75666;DHT22;64263;49.492;11.056;2023-06-24T11:36:22;41.60;24.50
75666;DHT22;64263;49.492;11.056;2023-06-24T11:38:48;42.00;23.50
75666;DHT22;64263;49.492;11.056;2023-06-24T11:41:14;43.00;22.40
75666;DHT22;64263;49.492;11.056;2023-06-24T11:43:46;41.00;22.00
75666;DHT22;64263;49.492;11.056;2023-06-24T11:46:29;39.20;25.20
75666;DHT22;64263;49.492;11.056;2023-06-24T11:49:15;37.00;27.00
75666;DHT22;64263;49.492;11.056;2023-06-24T11:51:48;38.20;26.80
75666;DHT22;64263;49.492;11.056;2023-06-24T11:54:18;40.00;24.50
75666;DHT22;64263;49.492;11.056;2023-06-24T11:56:44;41.60;23.00
75666;DHT22;64263;49.492;11.056;2023-06-24T11:59:21;42.60;23.10
75666;DHT22;64263;49.492;11.056;2023-06-24T12:01:54;43.10;23.30
75666;DHT22;64263;49.492;11.056;2023-06-24T12:04:21;43.80;22.50
75666;DHT22;64263;49.492;11.056;2023-06-24T12:06:47;42.60;22.20
75666;DHT22;64263;49.492;11.056;2023-06-24T12:09:12;36.70;25.00
75666;DHT22;64263;49.492;11.056;2023-06-24T12:11:38;37.20;27.50
75666;DHT22;64263;49.492;11.056;2023-06-24T12:14:04;40.80;25.00
75666;DHT22;64263;49.492;11.056;2023-06-24T12:16:30;42.20;22.50
75666;DHT22;64263;49.492;11.056;2023-06-24T12:18:55;42.50;23.30
75666;DHT22;64263;49.492;11.056;2023-06-24T12:21:21;43.50;22.00
75666;DHT22;64263;49.492;11.056;2023-06-24T12:23:46;44.40;22.10
75666;DHT22;64263;49.492;11.056;2023-06-24T12:26:12;44.40;19.80
75666;DHT22;64263;49.492;11.056;2023-06-24T12:28:37;41.00;22.60
75666;DHT22;64263;49.492;11.056;2023-06-24T12:31:03;39.90;24.10
75666;DHT22;64263;49.492;11.056;2023-06-24T12:33:29;42.00;23.20
75666;DHT22;64263;49.492;11.056;2023-06-24T12:35:55;43.90;21.30
75666;DHT22;64263;49.492;11.056;2023-06-24T12:38:20;45.40;19.90
75666;DHT22;64263;49.492;11.056;2023-06-24T12:40:46;46.00;20.20
75666;DHT22;64263;49.492;11.056;2023-06-24T12:43:11;46.50;19.50
75666;DHT22;64263;49.492;11.056;2023-06-24T12:45:41;47.20;19.10
75666;DHT22;64263;49.492;11.056;2023-06-24T12:48:06;47.20;20.00
75666;DHT22;64263;49.492;11.056;2023-06-24T12:50:32;46.50;19.50
75666;DHT22;64263;49.492;11.056;2023-06-24T12:52:58;45.70;19.90
75666;DHT22;64263;49.492;11.056;2023-06-24T12:55:23;45.30;19.70
75666;DHT22;64263;49.492;11.056;2023-06-24T12:57:49;42.60;21.20
75666;DHT22;64263;49.492;11.056;2023-06-24T13:00:15;38.00;25.00
75666;DHT22;64263;49.492;11.056;2023-06-24T13:02:40;35.10;26.70
75666;DHT22;64263;49.492;11.056;2023-06-24T13:05:06;33.40;29.20
75666;DHT22;64263;49.492;11.056;2023-06-24T13:07:31;32.50;31.30
75666;DHT22;64263;49.492;11.056;2023-06-24T13:09:57;31.40;31.70
75666;DHT22;64263;49.492;11.056;2023-06-24T13:12:22;29.90;33.90
75666;DHT22;64263;49.492;11.056;2023-06-24T13:14:48;28.70;35.00
75666;DHT22;64263;49.492;11.056;2023-06-24T13:17:13;28.20;36.40
75666;DHT22;64263;49.492;11.056;2023-06-24T13:19:39;28.10;37.10
75666;DHT22;64263;49.492;11.056;2023-06-24T13:22:04;27.00;35.20
75666;DHT22;64263;49.492;11.056;2023-06-24T13:24:30;26.80;36.80
75666;DHT22;64263;49.492;11.056;2023-06-24T13:26:55;26.80;38.50
75666;DHT22;64263;49.492;11.056;2023-06-24T13:29:21;26.70;37.00
75666;DHT22;64263;49.492;11.056;2023-06-24T13:31:46;26.40;39.50
75666;DHT22;64263;49.492;11.056;2023-06-24T13:34:12;26.40;40.20
75666;DHT22;64263;49.492;11.056;2023-06-24T13:36:38;26.40;41.30
75666;DHT22;64263;49.492;11.056;2023-06-24T13:39:05;26.10;40.20
75666;DHT22;64263;49.492;11.056;2023-06-24T13:41:31;26.30;39.70
75666;DHT22;64263;49.492;11.056;2023-06-24T13:43:57;26.70;39.00
75666;DHT22;64263;49.492;11.056;2023-06-24T13:46:22;27.10;39.20
75666;DHT22;64263;49.492;11.056;2023-06-24T13:48:48;27.40;37.20
75666;DHT22;64263;49.492;11.056;2023-06-24T13:51:14;27.50;36.90
75666;DHT22;64263;49.492;11.056;2023-06-24T13:53:39;27.50;38.70
75666;DHT22;64263;49.492;11.056;2023-06-24T13:56:05;27.30;36.00
75666;DHT22;64263;49.492;11.056;2023-06-24T13:58:30;26.80;37.00
75666;DHT22;64263;49.492;11.056;2023-06-24T14:00:56;26.60;37.30
75666;DHT22;64263;49.492;11.056;2023-06-24T14:03:21;26.60;37.30
75666;DHT22;64263;49.492;11.056;2023-06-24T14:05:46;26.40;37.50
75666;DHT22;64263;49.492;11.056;2023-06-24T14:08:12;26.40;36.30
75666;DHT22;64263;49.492;11.056;2023-06-24T14:10:37;25.60;35.60
75666;DHT22;64263;49.492;11.056;2023-06-24T14:13:03;25.60;38.30
75666;DHT22;64263;49.492;11.056;2023-06-24T14:15:28;25.90;37.90
75666;DHT22;64263;49.492;11.056;2023-06-24T14:17:54;26.20;38.00
75666;DHT22;64263;49.492;11.056;2023-06-24T14:20:20;26.50;39.30
75666;DHT22;64263;49.492;11.056;2023-06-24T14:22:45;26.60;36.40
75666;DHT22;64263;49.492;11.056;2023-06-24T14:25:11;26.80;36.50
75666;DHT22;64263;49.492;11.056;2023-06-24T14:27:36;27.00;36.30
75666;DHT22;64263;49.492;11.056;2023-06-24T14:30:02;27.20;35.70
75666;DHT22;64263;49.492;11.056;2023-06-24T14:32:27;27.30;35.50
75666;DHT22;64263;49.492;11.056;2023-06-24T14:34:53;26.60;35.50
75666;DHT22;64263;49.492;11.056;2023-06-24T14:37:18;26.40;36.10
75666;DHT22;64263;49.492;11.056;2023-06-24T14:39:44;26.40;37.70
75666;DHT22;64263;49.492;11.056;2023-06-24T14:42:09;26.20;35.40
75666;DHT22;64263;49.492;11.056;2023-06-24T14:44:35;26.00;35.60
75666;DHT22;64263;49.492;11.056;2023-06-24T14:47:00;25.90;35.80
75666;DHT22;64263;49.492;11.056;2023-06-24T14:49:26;25.80;38.30
75666;DHT22;64263;49.492;11.056;2023-06-24T14:51:52;25.90;39.00
75666;DHT22;64263;49.492;11.056;2023-06-24T14:54:17;26.00;37.30
75666;DHT22;64263;49.492;11.056;2023-06-24T14:56:43;26.00;37.50
75666;DHT22;64263;49.492;11.056;2023-06-24T14:59:08;26.00;40.00
75666;DHT22;64263;49.492;11.056;2023-06-24T15:01:34;26.00;36.30
75666;DHT22;64263;49.492;11.056;2023-06-24T15:03:59;26.00;37.90
75666;DHT22;64263;49.492;11.056;2023-06-24T15:06:25;25.80;35.80
75666;DHT22;64263;49.492;11.056;2023-06-24T15:08:50;25.70;37.90
75666;DHT22;64263;49.492;11.056;2023-06-24T15:11:16;25.80;37.10
75666;DHT22;64263;49.492;11.056;2023-06-24T15:13:41;25.80;39.30
75666;DHT22;64263;49.492;11.056;2023-06-24T15:16:07;25.50;40.60
75666;DHT22;64263;49.492;11.056;2023-06-24T15:18:32;25.20;40.40
75666;DHT22;64263;49.492;11.056;2023-06-24T15:20:58;25.00;41.50
75666;DHT22;64263;49.492;11.056;2023-06-24T15:23:23;24.90;40.70
75666;DHT22;64263;49.492;11.056;2023-06-24T15:25:49;25.00;42.00
75666;DHT22;64263;49.492;11.056;2023-06-24T15:28:14;25.00;41.60
75666;DHT22;64263;49.492;11.056;2023-06-24T15:30:40;25.00;39.50
75666;DHT22;64263;49.492;11.056;2023-06-24T15:33:05;25.00;38.30